Time;durP1;ratioP1;P1;durP2;ratioP2;P2;SDS_P1;SDS_P2;PMS_P1;PMS_P2;Temp;Humidity;BMP_temperature;BMP_pressure;BME280_temperature;BME280_humidity;BME280_pressure;Samples;Min_cycle;Max_cycle;Signal;HPM_P1;HPM_P2
2021/05/05 00:01:57;;;;;;;8.52;4.22;;;;;;;15.62;60.50;99388.91;5030255;28;20039;-49
2021/05/05 00:04:23;;;;;;;7.28;4.45;;;;;;;15.87;59.90;99399.22;5030151;28;20033;-49
2021/05/05 00:06:48;;;;;;;5.75;4.03;;;;;;;16.27;58.79;99397.34;5030420;28;20163;-47
2021/05/05 00:09:14;;;;;;;7.85;4.35;;;;;;;16.12;59.12;99396.09;5030213;28;20029;-48
2021/05/05 00:11:41;;;;;;;11.90;4.30;;;;;;;16.09;58.90;99398.44;5029979;28;20026;-49
2021/05/05 00:14:07;;;;;;;4.95;3.83;;;;;;;15.95;57.91;99333.59;5029931;28;20382;-47
2021/05/05 00:16:32;;;;;;;7.45;4.05;;;;;;;16.30;58.12;99381.56;5030217;28;20462;-47
2021/05/05 00:18:58;;;;;;;7.75;4.10;;;;;;;16.27;58.10;99365.94;5029781;28;20021;-48
2021/05/05 00:21:23;;;;;;;6.28;4.40;;;;;;;15.81;59.00;99365.34;5030168;28;20087;-50
2021/05/05 00:23:49;;;;;;;7.03;4.18;;;;;;;15.69;60.13;99356.53;5030008;28;20030;-50
2021/05/05 00:26:15;;;;;;;5.93;4.10;;;;;;;15.70;59.83;99360.88;5030018;28;20104;-49
2021/05/05 00:28:40;;;;;;;9.63;4.15;;;;;;;15.65;59.88;99350.88;5029762;28;20128;-49
2021/05/05 00:31:06;;;;;;;9.05;4.07;;;;;;;15.77;59.40;99361.53;5029949;28;20033;-48
2021/05/05 00:33:31;;;;;;;7.32;4.35;;;;;;;16.20;58.37;99359.94;5029899;28;20032;-50
2021/05/05 00:35:57;;;;;;;8.02;4.22;;;;;;;16.00;58.59;99355.94;5029796;28;20675;-50
2021/05/05 00:38:22;;;;;;;6.30;3.67;;;;;;;16.22;58.36;99361.34;5030022;28;20040;-49
2021/05/05 00:40:48;;;;;;;5.50;3.90;;;;;;;16.17;58.40;99368.50;5029919;28;20037;-48
2021/05/05 00:43:13;;;;;;;6.47;4.13;;;;;;;16.14;58.17;99377.06;5029762;28;20481;-48
2021/05/05 00:45:39;;;;;;;9.73;3.90;;;;;;;15.94;59.14;99391.81;5029640;28;20421;-48
2021/05/05 00:48:05;;;;;;;6.95;3.70;;;;;;;15.83;59.25;99412.31;5029653;28;20501;-49
2021/05/05 00:50:30;;;;;;;5.30;3.92;;;;;;;15.56;59.52;99382.66;5029747;28;20045;-51
2021/05/05 00:52:56;;;;;;;5.70;4.22;;;;;;;15.97;58.70;99388.66;5029926;28;20026;-50
2021/05/05 00:55:21;;;;;;;7.82;4.20;;;;;;;15.99;58.78;99388.38;5029761;28;20442;-50
2021/05/05 00:57:47;;;;;;;6.88;4.60;;;;;;;16.05;58.88;99381.22;5029921;28;20036;-48
2021/05/05 01:00:13;;;;;;;6.93;4.20;;;;;;;15.78;59.19;99388.13;5012272;28;20026;-51
2021/05/05 01:02:38;;;;;;;6.63;4.40;;;;;;;15.87;59.35;99401.09;5029653;28;20032;-51
2021/05/05 01:05:05;;;;;;;5.85;4.40;;;;;;;15.78;59.48;99396.16;5029662;28;20025;-49
2021/05/05 01:07:31;;;;;;;6.00;4.40;;;;;;;15.72;59.86;99396.28;5029752;28;20382;-51
2021/05/05 01:09:56;;;;;;;8.18;4.20;;;;;;;15.78;59.82;99396.16;5029740;28;20029;-52
2021/05/05 01:12:21;;;;;;;5.90;4.45;;;;;;;16.21;58.68;99401.84;5029692;28;20049;-48
2021/05/05 01:14:49;;;;;;;7.68;4.82;;;;;;;16.32;57.82;99394.75;5030309;28;20018;-50
2021/05/05 01:17:14;;;;;;;6.03;4.35;;;;;;;16.18;58.47;99397.78;5033218;28;20032;-48
2021/05/05 01:19:40;;;;;;;6.32;4.50;;;;;;;16.16;58.56;99386.50;5033085;28;20017;-51
2021/05/05 01:22:05;;;;;;;6.32;4.03;;;;;;;16.40;58.13;99386.25;5033291;28;20025;-48
2021/05/05 01:24:33;;;;;;;7.15;4.22;;;;;;;16.34;57.57;99373.81;5033209;28;20523;-47
2021/05/05 01:26:58;;;;;;;9.50;4.38;;;;;;;16.19;58.51;99361.00;5032993;28;20036;-50
2021/05/05 01:29:23;;;;;;;8.77;4.13;;;;;;;16.01;58.65;99357.59;5032727;28;20033;-51
2021/05/05 01:31:49;;;;;;;9.20;4.35;;;;;;;15.89;59.57;99348.00;5032634;28;20429;-49
2021/05/05 01:34:14;;;;;;;6.07;4.53;;;;;;;16.13;58.82;99356.66;5032286;28;20497;-49
2021/05/05 01:36:40;;;;;;;6.72;4.05;;;;;;;16.33;57.69;99358.75;5032435;28;20116;-48
2021/05/05 01:39:08;;;;;;;7.53;4.47;;;;;;;16.20;58.62;99363.47;5032573;28;20018;-48
2021/05/05 01:41:34;;;;;;;7.93;4.38;;;;;;;16.22;57.98;99357.81;5032780;28;20029;-52
2021/05/05 01:43:59;;;;;;;7.38;4.57;;;;;;;16.07;58.81;99352.25;5032725;28;20029;-48
2021/05/05 01:46:25;;;;;;;6.43;4.60;;;;;;;15.74;59.38;99357.47;5032681;28;20398;-48
2021/05/05 01:48:50;;;;;;;8.90;5.18;;;;;;;15.91;59.81;99351.25;5032291;28;20687;-48
2021/05/05 01:51:15;;;;;;;6.93;4.53;;;;;;;15.86;59.92;99352.00;5032519;28;20029;-48
2021/05/05 01:53:41;;;;;;;8.27;4.85;;;;;;;15.83;59.70;99363.22;5032756;28;20029;-49
2021/05/05 01:56:06;;;;;;;6.78;4.75;;;;;;;15.52;60.77;99354.72;5032674;28;20501;-52
2021/05/05 01:58:35;;;;;;;8.40;5.10;;;;;;;15.46;60.78;99350.34;5032585;28;20090;-51
2021/05/05 02:01:00;;;;;;;8.15;4.68;;;;;;;15.64;60.32;99349.25;5032172;28;20091;-48
2021/05/05 02:03:26;;;;;;;8.02;4.57;;;;;;;15.91;59.50;99338.66;5031936;28;20022;-49
2021/05/05 02:05:51;;;;;;;5.72;4.60;;;;;;;15.61;60.18;99339.84;5031581;28;20021;-49
2021/05/05 02:08:17;;;;;;;9.40;4.70;;;;;;;15.19;61.66;99332.22;5031491;28;20424;-50
2021/05/05 02:10:45;;;;;;;7.78;4.93;;;;;;;15.19;61.75;99332.22;5032154;28;20030;-49
2021/05/05 02:13:11;;;;;;;7.93;5.25;;;;;;;14.74;63.32;99322.34;5031798;28;20111;-50
2021/05/05 02:15:36;;;;;;;10.65;5.38;;;;;;;15.39;61.67;99317.50;5032041;28;20017;-49
2021/05/05 02:18:02;;;;;;;8.82;5.22;;;;;;;15.33;61.30;99324.66;5031913;28;20022;-50
2021/05/05 02:20:28;;;;;;;10.13;5.15;;;;;;;15.35;61.28;99324.41;5031841;28;20033;-49
2021/05/05 02:22:53;;;;;;;10.13;5.63;;;;;;;15.00;62.23;99318.25;5032139;28;20037;-50
2021/05/05 02:25:19;;;;;;;7.03;5.53;;;;;;;15.06;61.93;99316.47;5031854;28;20065;-50
2021/05/05 02:27:44;;;;;;;9.77;5.57;;;;;;;15.02;62.39;99305.41;5030926;28;20342;-51
2021/05/05 02:30:11;;;;;;;7.03;5.07;;;;;;;14.94;62.47;99302.31;5031647;28;20101;-49
2021/05/05 02:32:36;;;;;;;7.55;6.05;;;;;;;14.74;63.36;99308.16;5031978;28;20052;-49
2021/05/05 02:35:03;;;;;;;8.10;4.88;;;;;;;14.81;63.03;99306.13;5031866;28;20485;-49
2021/05/05 02:37:28;;;;;;;9.93;5.00;;;;;;;14.88;62.66;99311.34;5031992;28;20025;-52
2021/05/05 02:39:54;;;;;;;9.70;5.72;;;;;;;14.95;62.49;99306.63;5031638;28;20505;-50
2021/05/05 02:42:20;;;;;;;9.65;5.60;;;;;;;14.51;63.33;99264.34;5031779;28;20021;-52
2021/05/05 02:44:48;;;;;;;8.93;5.55;;;;;;;14.52;63.72;99303.44;5031562;28;20025;-50
2021/05/05 02:47:13;;;;;;;8.27;5.63;;;;;;;14.65;63.50;99305.84;5031664;28;20489;-36
2021/05/05 02:49:39;;;;;;;9.95;5.72;;;;;;;15.12;62.11;99315.50;5031270;28;20029;-37
2021/05/05 02:52:05;;;;;;;8.40;5.30;;;;;;;15.38;61.42;99323.91;5031315;28;20021;-37
2021/05/05 02:54:30;;;;;;;9.90;5.88;;;;;;;15.57;60.55;99322.63;5031084;28;20051;-38
2021/05/05 02:56:56;;;;;;;8.43;5.70;;;;;;;15.96;59.41;99327.97;5031171;28;20060;-37
2021/05/05 02:59:21;;;;;;;10.82;5.68;;;;;;;15.69;59.80;99333.22;5031334;28;20390;-37
2021/05/05 03:01:47;;;;;;;11.27;5.60;;;;;;;15.97;59.28;99334.16;5031089;28;20017;-37
2021/05/05 03:04:12;;;;;;;10.10;6.22;;;;;;;15.83;59.63;99342.56;5030912;28;20025;-37
2021/05/05 03:06:38;;;;;;;14.48;9.00;;;;;;;15.76;59.95;99341.13;5030959;28;20026;-37
2021/05/05 03:09:04;;;;;;;9.68;6.15;;;;;;;15.85;59.29;99336.97;5030949;28;20037;-38
2021/05/05 03:11:29;;;;;;;8.80;6.30;;;;;;;15.69;60.58;99340.44;5031114;28;20025;-37
2021/05/05 03:13:55;;;;;;;9.93;6.22;;;;;;;15.70;59.73;99342.88;5030870;28;20048;-37
2021/05/05 03:16:20;;;;;;;9.57;5.70;;;;;;;15.83;59.39;99328.34;5031251;28;20056;-37
2021/05/05 03:18:46;;;;;;;10.10;5.78;;;;;;;15.88;58.80;99328.44;5030928;28;20412;-37
2021/05/05 03:21:12;;;;;;;8.15;5.72;;;;;;;15.88;58.79;99331.09;5030837;28;20033;-37
2021/05/05 03:23:37;;;;;;;8.05;5.13;;;;;;;15.95;58.49;99323.66;5030823;28;20057;-37
2021/05/05 03:26:02;;;;;;;7.68;5.75;;;;;;;15.88;59.00;99331.09;5030745;28;20059;-37
2021/05/05 03:28:28;;;;;;;9.02;6.10;;;;;;;15.63;59.62;99327.00;5030853;28;20095;-37
2021/05/05 03:30:53;;;;;;;9.65;6.10;;;;;;;15.53;59.76;99328.69;5030728;28;20045;-37
2021/05/05 03:33:19;;;;;;;9.65;6.05;;;;;;;15.75;59.30;99343.00;5029626;28;20037;-37
2021/05/05 03:35:44;;;;;;;8.85;6.13;;;;;;;15.92;59.08;99347.53;5030732;28;20033;-37
2021/05/05 03:38:10;;;;;;;9.68;5.20;;;;;;;15.84;59.13;99356.81;5030318;28;20388;-37
2021/05/05 03:40:35;;;;;;;77.68;46.00;;;;;;;16.00;58.78;99350.56;5030147;28;20079;-38
2021/05/05 03:43:01;;;;;;;153.85;77.70;;;;;;;15.78;59.22;99355.09;5028970;28;20057;-38
2021/05/05 03:45:26;;;;;;;10.43;6.68;;;;;;;15.94;58.76;99356.94;5030411;28;20033;-36
2021/05/05 03:47:52;;;;;;;9.57;6.25;;;;;;;15.85;58.33;99363.78;5030348;28;20036;-37
2021/05/05 03:50:18;;;;;;;12.95;6.72;;;;;;;15.77;59.09;99366.91;5030007;28;20444;-37
2021/05/05 03:52:43;;;;;;;11.23;6.43;;;;;;;15.64;59.77;99373.38;5030296;28;20590;-37
2021/05/05 03:55:09;;;;;;;9.60;6.10;;;;;;;15.81;59.56;99370.72;5030385;28;20036;-37
2021/05/05 03:57:35;;;;;;;10.30;6.13;;;;;;;16.10;58.42;99384.78;5030578;28;20091;-36
2021/05/05 04:00:00;;;;;;;10.77;6.03;;;;;;;16.19;57.74;99380.63;5030654;28;20025;-40
2021/05/05 04:02:26;;;;;;;9.40;6.45;;;;;;;16.47;57.46;99375.28;5030275;28;20033;-37
2021/05/05 04:04:51;;;;;;;11.63;6.43;;;;;;;16.36;57.40;99377.88;5030362;28;20029;-37
2021/05/05 04:07:17;;;;;;;11.05;6.28;;;;;;;16.48;57.09;99380.41;5029076;28;20385;-37
2021/05/05 04:09:42;;;;;;;11.63;6.70;;;;;;;16.52;57.61;99370.78;5030361;28;20083;-37
2021/05/05 04:12:08;;;;;;;10.02;6.15;;;;;;;16.20;60.39;99376.03;5029893;28;20425;-37
2021/05/05 04:14:34;;;;;;;12.15;5.90;;;;;;;16.59;64.59;99378.66;5022097;28;20025;-37
2021/05/05 04:16:59;;;;;;;10.75;6.00;;;;;;;17.24;55.88;99382.28;5010509;28;20021;-37
2021/05/05 04:19:25;;;;;;;9.88;5.90;;;;;;;17.45;56.69;99391.34;5025371;28;20021;-38
2021/05/05 04:21:50;;;;;;;8.98;5.78;;;;;;;17.59;57.26;99395.22;5029895;28;20029;-38
2021/05/05 04:24:16;;;;;;;9.98;5.65;;;;;;;17.83;57.64;99402.09;5029269;28;20440;-38
2021/05/05 04:26:42;;;;;;;10.10;5.90;;;;;;;18.25;52.64;99401.28;5022347;28;20034;-37
2021/05/05 04:29:07;;;;;;;10.38;5.88;;;;;;;18.17;51.61;99405.28;5021482;28;20508;-37
2021/05/05 04:31:32;;;;;;;10.35;6.18;;;;;;;17.71;52.65;99411.16;5011900;28;20026;-37
2021/05/05 04:33:58;;;;;;;13.07;6.45;;;;;;;17.21;53.71;99412.38;5023391;28;20041;-37
2021/05/05 04:36:24;;;;;;;10.52;5.70;;;;;;;17.09;53.78;99411.72;5015992;28;20162;-37
2021/05/05 04:38:49;;;;;;;11.60;5.90;;;;;;;16.71;55.93;99402.69;5029507;28;20022;-37
2021/05/05 04:41:15;;;;;;;9.93;6.07;;;;;;;16.84;55.33;99406.91;5029429;28;20373;-37
2021/05/05 04:43:40;;;;;;;9.10;6.15;;;;;;;17.01;55.31;99418.38;5028993;28;20088;-37
2021/05/05 04:46:06;;;;;;;14.77;6.30;;;;;;;16.90;55.12;99427.38;5028924;28;20030;-37
2021/05/05 04:48:31;;;;;;;8.63;5.68;;;;;;;17.00;54.95;99428.31;5028418;28;20033;-37
2021/05/05 04:50:57;;;;;;;11.25;6.10;;;;;;;17.00;54.38;99419.41;5031404;28;20033;-37
2021/05/05 04:53:23;;;;;;;13.00;6.55;;;;;;;17.09;55.00;99431.34;5032671;28;20030;-37
2021/05/05 04:55:49;;;;;;;12.00;6.30;;;;;;;17.27;53.87;99440.09;5032915;28;20108;-38
2021/05/05 04:58:14;;;;;;;8.68;5.93;;;;;;;17.24;53.98;99443.31;5032533;28;20022;-38
2021/05/05 05:00:40;;;;;;;8.48;5.50;;;;;;;17.27;53.52;99453.56;5032556;28;20370;-38
2021/05/05 05:03:05;;;;;;;9.95;5.38;;;;;;;17.31;53.10;99449.31;5032604;28;20025;-38
2021/05/05 05:05:31;;;;;;;8.88;5.63;;;;;;;17.30;53.62;99453.06;5032034;28;20025;-37
2021/05/05 05:07:58;;;;;;;10.45;5.68;;;;;;;17.39;53.87;99451.53;5032500;28;20453;-37
2021/05/05 05:10:23;;;;;;;9.43;5.90;;;;;;;17.24;54.75;99454.88;5032510;28;20187;-37
2021/05/05 05:12:49;;;;;;;9.13;5.97;;;;;;;17.38;54.34;99447.22;5032783;28;20057;-37
2021/05/05 05:15:14;;;;;;;11.48;6.40;;;;;;;17.43;54.43;99431.13;5032729;28;20029;-38
2021/05/05 05:17:40;;;;;;;12.10;6.65;;;;;;;17.28;53.54;99431.00;5031330;28;20033;-37
2021/05/05 05:20:07;;;;;;;11.65;7.32;;;;;;;16.99;54.33;99425.88;5031417;28;20049;-37
2021/05/05 05:22:34;;;;;;;13.38;6.28;;;;;;;17.08;54.48;99415.50;5032422;28;20041;-37
2021/05/05 05:25:01;;;;;;;13.10;6.38;;;;;;;16.58;55.76;99417.31;5032017;28;20040;-37
2021/05/05 05:27:27;;;;;;;10.88;6.00;;;;;;;16.44;57.21;99421.47;5031748;28;20029;-37
2021/05/05 05:29:52;;;;;;;13.93;6.30;;;;;;;16.70;56.34;99427.97;5031907;28;20045;-37
2021/05/05 05:32:18;;;;;;;9.85;6.25;;;;;;;16.76;57.02;99443.06;5032455;28;20418;-37
2021/05/05 05:34:43;;;;;;;10.73;6.88;;;;;;;16.93;57.05;99448.41;5032026;28;20041;-38
2021/05/05 05:37:09;;;;;;;16.05;6.68;;;;;;;17.19;54.45;99452.97;5032333;28;20032;-38
2021/05/05 05:39:34;;;;;;;9.60;6.35;;;;;;;17.38;54.17;99434.59;5032305;28;20029;-38
2021/05/05 05:41:59;;;;;;;10.65;6.75;;;;;;;17.64;53.75;99452.81;5032083;28;20457;-38
2021/05/05 05:44:25;;;;;;;9.40;6.53;;;;;;;17.61;54.31;99448.78;5032255;28;20020;-38
2021/05/05 05:46:50;;;;;;;11.73;5.95;;;;;;;17.71;53.54;99450.72;5032352;28;20091;-38
2021/05/05 05:49:16;;;;;;;8.80;6.32;;;;;;;17.72;53.32;99450.44;5031058;28;20033;-38
2021/05/05 05:51:41;;;;;;;10.68;6.40;;;;;;;17.81;53.64;99452.69;5032657;28;20055;-38
2021/05/05 05:54:07;;;;;;;12.73;6.78;;;;;;;18.06;53.27;99452.88;5032289;28;20056;-37
2021/05/05 05:56:32;;;;;;;12.55;6.78;;;;;;;17.97;54.52;99441.78;5032216;28;20465;-37
2021/05/05 05:58:58;;;;;;;9.93;6.97;;;;;;;18.14;54.40;99449.72;5032485;28;20029;-38
2021/05/05 06:01:24;;;;;;;11.90;7.55;;;;;;;18.30;53.46;99439.81;5031947;28;20025;-37
2021/05/05 06:03:49;;;;;;;13.90;7.85;;;;;;;18.39;53.61;99431.22;5031820;28;20493;-37
2021/05/05 06:06:17;;;;;;;8.55;7.18;;;;;;;18.38;53.06;99425.03;5031517;28;20414;-38
2021/05/05 06:08:42;;;;;;;10.63;7.05;;;;;;;18.57;53.91;99425.41;5032054;28;20068;-38
2021/05/05 06:11:08;;;;;;;15.75;7.78;;;;;;;18.65;52.75;99408.69;5031629;28;20064;-37
2021/05/05 06:13:33;;;;;;;11.68;7.03;;;;;;;18.47;53.55;99411.88;5032074;28;20064;-37
2021/05/05 06:15:59;;;;;;;11.52;7.63;;;;;;;18.70;52.47;99403.34;5032301;28;20476;-37
2021/05/05 06:18:24;;;;;;;10.88;7.22;;;;;;;18.50;52.54;99404.06;5030027;28;20052;-37
2021/05/05 06:20:50;;;;;;;9.38;7.00;;;;;;;18.27;53.58;99413.41;5031262;28;20025;-37
2021/05/05 06:23:15;;;;;;;11.98;7.35;;;;;;;18.13;54.71;99415.75;5030103;28;20026;-37
2021/05/05 06:25:40;;;;;;;11.13;7.47;;;;;;;18.34;54.33;99413.19;5031120;28;20029;-37
2021/05/05 06:28:06;;;;;;;10.85;7.55;;;;;;;18.14;54.52;99413.88;5030910;28;20029;-37
2021/05/05 06:30:31;;;;;;;10.48;7.50;;;;;;;18.36;53.13;99406.44;5031029;28;20106;-37
2021/05/05 06:32:57;;;;;;;11.52;6.80;;;;;;;18.39;53.18;99425.84;5030950;28;20038;-38
2021/05/05 06:35:22;;;;;;;10.27;6.72;;;;;;;18.68;52.13;99431.63;5031021;28;20033;-37
2021/05/05 06:37:48;;;;;;;9.85;6.60;;;;;;;19.12;51.30;99418.56;5030906;28;20037;-38
2021/05/05 06:40:14;;;;;;;9.63;7.03;;;;;;;19.43;50.38;99412.38;5030213;28;20032;-38
2021/05/05 06:42:39;;;;;;;9.70;6.35;;;;;;;19.56;49.12;99416.44;5028253;28;20432;-38
2021/05/05 06:45:06;;;;;;;8.48;5.63;;;;;;;19.08;49.92;99409.38;5029701;28;20025;-38
2021/05/05 06:47:31;;;;;;;8.80;6.03;;;;;;;19.22;49.92;99400.75;5030186;28;20025;-38
2021/05/05 06:49:56;;;;;;;9.57;5.93;;;;;;;19.26;49.60;99404.53;5030527;28;20083;-38
2021/05/05 06:52:22;;;;;;;10.68;5.63;;;;;;;18.72;51.81;99409.28;5030409;28;20051;-38
2021/05/05 06:54:47;;;;;;;8.40;6.07;;;;;;;18.90;52.05;99405.28;5030232;28;20446;-38
2021/05/05 06:57:13;;;;;;;11.85;6.90;;;;;;;19.22;51.39;99406.97;5029332;28;20394;-38
2021/05/05 06:59:38;;;;;;;9.50;6.43;;;;;;;19.31;50.12;99402.66;5030388;28;20030;-38
2021/05/05 07:02:04;;;;;;;7.90;5.70;;;;;;;19.01;50.63;99406.13;5028894;28;20037;-38
2021/05/05 07:04:29;;;;;;;10.23;5.65;;;;;;;18.92;50.39;99405.03;5029754;28;20025;-38
2021/05/05 07:06:55;;;;;;;9.43;5.80;;;;;;;18.20;52.13;99402.06;5029553;28;20029;-37
2021/05/05 07:09:20;;;;;;;9.18;5.57;;;;;;;18.59;50.92;99396.28;5030685;28;20032;-38
2021/05/05 07:11:46;;;;;;;10.65;6.63;;;;;;;18.54;51.44;99394.41;5030719;28;20498;-37
2021/05/05 07:14:11;;;;;;;14.95;7.20;;;;;;;18.49;51.76;99404.34;5028903;28;20025;-37
2021/05/05 07:16:37;;;;;;;10.88;5.78;;;;;;;18.38;49.81;99405.38;5030575;28;20030;-37
2021/05/05 07:19:03;;;;;;;8.93;5.30;;;;;;;18.48;49.32;99402.72;5030488;28;20079;-38
2021/05/05 07:21:28;;;;;;;8.82;6.22;;;;;;;19.01;48.57;99398.03;5030339;28;20482;-38
2021/05/05 07:23:55;;;;;;;12.90;7.03;;;;;;;18.91;48.47;99390.75;5030294;28;20037;-37
2021/05/05 07:26:21;;;;;;;12.10;7.20;;;;;;;18.87;48.63;99388.88;5029675;28;20478;-38
2021/05/05 07:28:46;;;;;;;8.50;6.25;;;;;;;18.74;49.25;99392.84;5030074;28;20025;-38
2021/05/05 07:31:12;;;;;;;7.90;5.72;;;;;;;19.19;46.56;99383.25;5030675;28;20038;-38
2021/05/05 07:33:38;;;;;;;9.05;5.53;;;;;;;19.31;46.89;99389.16;5030236;28;20033;-38
2021/05/05 07:36:03;;;;;;;10.57;6.20;;;;;;;19.73;45.93;99392.69;5030118;28;20064;-38
2021/05/05 07:46:27;;;;;;;9.02;6.40;;;;;;;19.66;47.12;99384.00;5030198;28;20053;-38
2021/05/05 07:48:58;;;;;;;11.27;6.85;;;;;;;19.80;46.86;99376.19;5029789;28;20045;-37
2021/05/05 07:51:24;;;;;;;12.48;6.13;;;;;;;19.32;48.16;99368.38;5028372;28;20121;-37
2021/05/05 07:53:49;;;;;;;11.15;5.38;;;;;;;19.20;47.52;99365.16;5029477;28;20109;-37
2021/05/05 07:56:16;;;;;;;8.82;5.50;;;;;;;19.27;47.57;99371.91;5029777;28;20115;-37
2021/05/05 07:58:42;;;;;;;7.00;5.05;;;;;;;19.05;47.16;99382.94;5030112;28;20021;-38
2021/05/05 08:01:09;;;;;;;7.55;4.97;;;;;;;18.75;48.16;99381.81;5027750;28;20056;-37
2021/05/05 08:03:34;;;;;;;8.25;5.00;;;;;;;19.11;47.87;99368.41;5028868;28;20104;-38
2021/05/05 08:06:00;;;;;;;7.68;5.13;;;;;;;19.42;47.36;99363.00;5029473;28;20120;-37
2021/05/05 08:08:25;;;;;;;9.30;5.57;;;;;;;20.11;46.26;99366.94;5029149;28;20037;-38
2021/05/05 08:10:51;;;;;;;9.65;5.50;;;;;;;20.23;46.13;99357.69;5029337;28;20048;-38
2021/05/05 08:13:16;;;;;;;10.80;5.88;;;;;;;20.28;46.73;99361.19;5029174;28;20067;-37
2021/05/05 08:15:42;;;;;;;7.22;5.40;;;;;;;19.94;47.64;99358.34;5029540;28;20036;-38
2021/05/05 08:18:07;;;;;;;9.45;5.80;;;;;;;20.05;47.78;99348.34;5029789;28;20044;-38
2021/05/05 08:20:34;;;;;;;12.43;5.78;;;;;;;19.61;48.48;99352.47;5029835;28;20087;-38
2021/05/05 08:23:04;;;;;;;8.60;5.90;;;;;;;19.97;48.02;99343.47;5029483;28;20036;-38
2021/05/05 08:25:29;;;;;;;8.68;5.80;;;;;;;21.17;45.80;99346.91;5032874;28;20087;-38
2021/05/05 08:27:55;;;;;;;8.63;5.15;;;;;;;22.11;44.72;99353.84;5032958;28;20029;-38
2021/05/05 08:30:21;;;;;;;6.65;5.07;;;;;;;23.31;42.94;99349.19;5033227;28;20068;-38
2021/05/05 08:32:46;;;;;;;7.30;5.07;;;;;;;24.17;40.60;99351.44;5033410;28;20033;-38
2021/05/05 08:35:12;;;;;;;16.90;5.38;;;;;;;24.04;38.45;99335.94;5033424;28;20041;-38
2021/05/05 08:37:38;;;;;;;7.75;5.25;;;;;;;22.47;41.06;99334.44;5033337;28;20466;-38
2021/05/05 08:40:04;;;;;;;7.78;4.40;;;;;;;22.56;40.98;99310.16;5033482;28;20072;-38
2021/05/05 08:42:29;;;;;;;8.70;4.95;;;;;;;22.70;41.50;99327.31;5033145;28;20373;-36
2021/05/05 08:44:55;;;;;;;15.82;5.07;;;;;;;22.54;41.70;99328.63;5033149;28;20025;-38
2021/05/05 08:47:20;;;;;;;7.63;4.80;;;;;;;23.58;39.70;99341.09;5014953;28;20029;-38
2021/05/05 08:49:46;;;;;;;7.53;4.85;;;;;;;23.23;40.54;99347.97;5033279;28;20029;-38
2021/05/05 08:52:12;;;;;;;7.95;4.90;;;;;;;24.20;38.76;99346.19;5033625;28;20029;-38
2021/05/05 08:54:37;;;;;;;8.48;5.18;;;;;;;24.33;38.12;99332.88;5033518;28;20029;-38
2021/05/05 08:57:03;;;;;;;7.38;5.03;;;;;;;24.46;38.94;99326.59;5033499;28;20562;-38
2021/05/05 08:59:29;;;;;;;6.00;4.95;;;;;;;25.27;37.33;99331.28;5033752;28;20025;-38
2021/05/05 09:01:54;;;;;;;8.35;4.95;;;;;;;25.08;36.77;99333.38;5032617;28;20048;-37
2021/05/05 09:04:20;;;;;;;7.57;5.32;;;;;;;24.80;37.23;99332.69;5032780;28;20021;-38
2021/05/05 09:07:00;;;;;;;6.70;4.82;;;;;;;24.36;39.24;99326.84;5032824;28;20136;-39
2021/05/05 09:09:31;;;;;;;6.53;4.70;;;;;;;26.14;36.40;99325.41;5032382;28;20450;-38
2021/05/05 09:11:57;;;;;;;6.80;4.82;;;;;;;26.40;35.29;99314.56;5032396;28;20126;-39
2021/05/05 09:14:22;;;;;;;6.97;4.82;;;;;;;26.89;34.60;99319.91;5032286;28;20025;-37
2021/05/05 09:16:48;;;;;;;6.57;4.43;;;;;;;27.59;33.46;99315.09;5031228;28;20350;-38
2021/05/05 09:19:13;;;;;;;13.32;5.47;;;;;;;26.98;34.20;99308.94;5032209;28;20079;-37
2021/05/05 09:21:40;;;;;;;6.28;5.03;;;;;;;26.16;35.25;99306.84;5031280;28;20477;-37
2021/05/05 09:24:14;;;;;;;7.45;4.68;;;;;;;27.24;33.76;99306.97;5032534;28;20061;-37
2021/05/05 09:26:39;;;;;;;6.25;4.43;;;;;;;28.11;32.38;99289.47;5032306;28;20043;-38
2021/05/05 09:29:05;;;;;;;8.73;4.22;;;;;;;28.12;32.65;99269.19;5032259;28;20025;-38
2021/05/05 09:31:34;;;;;;;7.55;4.50;;;;;;;28.71;31.84;99281.97;5032239;28;20025;-37
2021/05/05 09:34:00;;;;;;;7.22;4.80;;;;;;;27.04;34.45;99277.66;5032270;28;20033;-38
2021/05/05 09:36:26;;;;;;;8.20;4.88;;;;;;;27.99;32.13;99271.03;5031468;28;20036;-38
2021/05/05 09:38:51;;;;;;;7.47;4.03;;;;;;;28.37;32.53;99272.03;5032359;28;20056;-38
2021/05/05 09:41:22;;;;;;;6.03;4.50;;;;;;;28.22;31.63;99268.00;5031985;28;20025;-36
2021/05/05 09:43:52;;;;;;;6.15;4.03;;;;;;;28.45;31.95;99263.78;5031483;28;20404;-37
2021/05/05 09:46:45;;;;;;;7.80;4.38;;;;;;;29.17;31.24;99260.09;5031882;28;20103;-38
2021/05/05 09:49:17;;;;;;;5.88;4.53;;;;;;;28.65;31.63;99255.91;5011459;28;20038;-38
2021/05/05 09:51:47;;;;;;;5.93;4.50;;;;;;;27.58;33.58;99247.91;5011351;28;20037;-38
2021/05/05 09:54:29;;;;;;;6.28;4.22;;;;;;;28.91;31.91;99241.19;5012125;28;20022;-38
2021/05/05 09:56:55;;;;;;;10.02;4.60;;;;;;;29.00;31.80;99239.16;5012267;28;20045;-37
2021/05/05 09:59:22;;;;;;;10.02;4.68;;;;;;;29.36;30.67;99252.13;5012303;28;20041;-37
2021/05/05 10:02:00;;;;;;;8.65;5.28;;;;;;;30.03;30.61;99246.41;5043618;28;20099;-37
2021/05/05 10:04:26;;;;;;;7.95;4.88;;;;;;;29.65;29.85;99244.84;5012216;28;20034;-38
2021/05/05 10:06:57;;;;;;;8.68;4.68;;;;;;;28.49;31.54;99247.50;5012153;28;20026;-37
2021/05/05 10:09:24;;;;;;;7.32;5.20;;;;;;;27.57;32.90;99235.41;5012163;28;20113;-38
2021/05/05 10:11:49;;;;;;;8.18;5.22;;;;;;;27.26;34.07;99232.94;5011427;28;20483;-38
2021/05/05 10:14:16;;;;;;;7.78;5.55;;;;;;;27.75;33.08;99238.81;5010272;28;20048;-36
2021/05/05 10:16:49;;;;;;;5.80;4.50;;;;;;;26.52;34.65;99234.81;5011415;28;20044;-39
2021/05/05 10:19:19;;;;;;;9.20;4.97;;;;;;;25.80;35.62;99231.53;5011451;28;20041;-37
2021/05/05 10:22:02;;;;;;;5.35;4.38;;;;;;;27.37;34.09;99222.47;5011395;28;20053;-38
2021/05/05 10:24:30;;;;;;;7.18;4.40;;;;;;;27.07;34.75;99200.53;5011283;28;20041;-38
2021/05/05 10:26:56;;;;;;;5.43;3.97;;;;;;;28.27;32.95;99208.41;5010964;28;20545;-38
2021/05/05 10:29:22;;;;;;;7.07;3.80;;;;;;;29.30;31.42;99212.41;5010963;28;20034;-37
2021/05/05 10:31:51;;;;;;;5.75;4.32;;;;;;;29.44;29.82;99199.16;5011193;28;20123;-37
2021/05/05 10:34:21;;;;;;;9.45;4.22;;;;;;;29.53;30.07;99206.44;5009817;28;20116;-38
2021/05/05 10:36:55;;;;;;;6.22;4.40;;;;;;;29.19;29.94;99203.81;5025517;28;20038;-38
2021/05/05 10:39:21;;;;;;;7.57;4.10;;;;;;;29.80;29.85;99196.75;5011134;28;20445;-38
2021/05/05 10:42:19;;;;;;;6.25;3.85;;;;;;;28.91;31.09;99197.38;5011067;28;20026;-38
2021/05/05 10:44:55;;;;;;;10.05;4.20;;;;;;;28.45;31.26;99192.63;5010721;28;20115;-38
2021/05/05 10:47:36;;;;;;;7.35;4.40;;;;;;;27.13;33.49;99182.88;5016470;28;20090;-37
2021/05/05 10:50:07;;;;;;;6.20;4.28;;;;;;;26.60;34.46;99186.84;5030242;28;20085;-37
2021/05/05 10:52:54;;;;;;;7.00;4.22;;;;;;;27.13;33.90;99173.84;5031054;28;20033;-38
2021/05/05 10:55:39;;;;;;;7.75;4.60;;;;;;;27.65;33.41;99166.22;5023798;28;20532;-38
2021/05/05 10:58:06;;;;;;;9.25;4.60;;;;;;;27.68;33.24;99168.31;5030692;28;20029;-38
2021/05/05 11:00:59;;;;;;;7.63;4.20;;;;;;;27.70;33.01;99159.75;5028863;28;20033;-38
2021/05/05 11:03:42;;;;;;;8.57;3.75;;;;;;;26.74;34.45;99149.25;5028427;28;20091;-39
2021/05/05 11:06:37;;;;;;;7.53;3.80;;;;;;;26.71;33.91;99149.91;5030083;28;20114;-37
2021/05/05 11:09:16;;;;;;;6.25;3.45;;;;;;;25.59;35.01;99168.66;5020934;28;20198;-38
2021/05/05 11:11:51;;;;;;;7.50;3.85;;;;;;;25.78;35.29;99159.38;5029645;28;20025;-38
2021/05/05 11:14:22;;;;;;;7.75;3.35;;;;;;;25.92;35.16;99158.16;5029030;28;20022;-38
2021/05/05 11:17:01;;;;;;;9.35;3.53;;;;;;;25.40;35.83;99159.94;5030338;28;20064;-38
2021/05/05 11:19:35;;;;;;;4.28;3.50;;;;;;;25.93;35.94;99146.13;5030337;28;20551;-38
2021/05/05 11:22:01;;;;;;;6.00;3.40;;;;;;;27.01;34.83;99148.03;5029142;28;20057;-37
2021/05/05 11:24:28;;;;;;;4.15;3.25;;;;;;;26.96;33.61;99147.41;5029955;28;20029;-37
2021/05/05 11:26:54;;;;;;;7.60;3.58;;;;;;;27.30;32.86;99147.31;5029774;28;20033;-38
2021/05/05 11:29:51;;;;;;;4.97;3.47;;;;;;;28.25;32.36;99136.03;5030056;28;20025;-38
2021/05/05 11:32:24;;;;;;;9.45;3.33;;;;;;;28.62;30.96;99133.44;5025069;28;20071;-38
2021/05/05 11:34:49;;;;;;;6.93;3.60;;;;;;;27.00;33.75;99129.28;5029391;28;20418;-38
2021/05/05 11:37:17;;;;;;;5.13;3.95;;;;;;;26.99;34.13;99124.94;5030337;28;20029;-37
2021/05/05 11:39:48;;;;;;;4.95;3.42;;;;;;;26.92;34.38;99118.06;5029452;28;20509;-39